sensor_id;sensor_type;location;lat;lon;timestamp;pressure;altitude;pressure_sealevel;temperature;humidity
74881;BME280;63427;49.654;6.596;2024-02-26T00:00:05;97633.29;;;10.78;37.11
74881;BME280;63427;49.654;6.596;2024-02-26T00:02:26;97630.72;;;10.84;36.66
74881;BME280;63427;49.654;6.596;2024-02-26T00:04:52;97626.74;;;10.88;37.23
74881;BME280;63427;49.654;6.596;2024-02-26T00:07:18;97627.33;;;11.21;37.44
74881;BME280;63427;49.654;6.596;2024-02-26T00:09:43;97629.46;;;10.94;37.21
74881;BME280;63427;49.654;6.596;2024-02-26T00:12:09;97635.08;;;10.83;37.41
74881;BME280;63427;49.654;6.596;2024-02-26T00:14:35;97634.31;;;10.56;38.11
74881;BME280;63427;49.654;6.596;2024-02-26T00:17:02;97629.73;;;10.62;38.51
74881;BME280;63427;49.654;6.596;2024-02-26T00:19:26;97629.99;;;10.36;38.33
74881;BME280;63427;49.654;6.596;2024-02-26T00:21:51;97630.04;;;10.51;37.58
74881;BME280;63427;49.654;6.596;2024-02-26T00:24:22;97629.08;;;10.61;37.74
74881;BME280;63427;49.654;6.596;2024-02-26T00:31:34;97631.80;;;10.88;37.97
74881;BME280;63427;49.654;6.596;2024-02-26T00:34:01;97632.76;;;10.79;37.28
74881;BME280;63427;49.654;6.596;2024-02-26T00:36:25;97637.65;;;10.74;37.92
74881;BME280;63427;49.654;6.596;2024-02-26T00:38:51;97631.87;;;10.89;37.59
74881;BME280;63427;49.654;6.596;2024-02-26T00:41:30;97631.43;;;10.60;38.60
74881;BME280;63427;49.654;6.596;2024-02-26T00:50:59;97635.71;;;10.32;39.38
74881;BME280;63427;49.654;6.596;2024-02-26T00:53:25;97630.31;;;10.53;39.54
74881;BME280;63427;49.654;6.596;2024-02-26T00:58:17;97626.31;;;10.51;39.79
74881;BME280;63427;49.654;6.596;2024-02-26T01:00:42;97624.33;;;10.35;40.25
74881;BME280;63427;49.654;6.596;2024-02-26T01:03:08;97627.62;;;10.06;40.53
74881;BME280;63427;49.654;6.596;2024-02-26T01:07:58;97637.24;;;10.08;40.28
74881;BME280;63427;49.654;6.596;2024-02-26T01:10:26;97630.51;;;10.30;40.39
74881;BME280;63427;49.654;6.596;2024-02-26T01:12:50;97629.96;;;10.37;40.68
74881;BME280;63427;49.654;6.596;2024-02-26T01:15:18;97634.49;;;9.94;41.29
74881;BME280;63427;49.654;6.596;2024-02-26T01:17:41;97625.08;;;9.89;40.55
74881;BME280;63427;49.654;6.596;2024-02-26T01:20:11;97622.76;;;10.12;40.64
74881;BME280;63427;49.654;6.596;2024-02-26T01:22:32;97607.78;;;10.02;40.70
74881;BME280;63427;49.654;6.596;2024-02-26T01:24:58;97616.20;;;10.16;40.09
74881;BME280;63427;49.654;6.596;2024-02-26T01:27:24;97620.46;;;9.89;40.61
74881;BME280;63427;49.654;6.596;2024-02-26T01:29:50;97621.19;;;10.08;41.09
74881;BME280;63427;49.654;6.596;2024-02-26T01:32:15;97615.83;;;9.86;41.28
74881;BME280;63427;49.654;6.596;2024-02-26T01:34:41;97618.24;;;9.34;41.74
74881;BME280;63427;49.654;6.596;2024-02-26T01:37:06;97622.03;;;9.91;41.85
74881;BME280;63427;49.654;6.596;2024-02-26T01:41:58;97625.10;;;10.12;41.85
74881;BME280;63427;49.654;6.596;2024-02-26T01:44:24;97614.87;;;9.68;41.71
74881;BME280;63427;49.654;6.596;2024-02-26T01:46:49;97618.94;;;9.90;41.86
74881;BME280;63427;49.654;6.596;2024-02-26T01:49:15;97614.40;;;9.91;41.70
74881;BME280;63427;49.654;6.596;2024-02-26T01:51:41;97617.86;;;9.99;40.80
74881;BME280;63427;49.654;6.596;2024-02-26T01:54:08;97622.86;;;10.11;41.17
74881;BME280;63427;49.654;6.596;2024-02-26T01:56:33;97624.84;;;9.92;42.06
74881;BME280;63427;49.654;6.596;2024-02-26T01:58:58;97615.33;;;9.77;41.57
74881;BME280;63427;49.654;6.596;2024-02-26T02:03:49;97615.33;;;10.20;40.89
74881;BME280;63427;49.654;6.596;2024-02-26T02:11:06;97604.39;;;10.22;39.42
74881;BME280;63427;49.654;6.596;2024-02-26T02:13:31;97599.76;;;10.45;39.99
74881;BME280;63427;49.654;6.596;2024-02-26T02:15:58;97590.93;;;9.96;39.84
74881;BME280;63427;49.654;6.596;2024-02-26T02:18:23;97581.30;;;10.12;40.08
74881;BME280;63427;49.654;6.596;2024-02-26T02:20:48;97581.92;;;10.45;39.48
74881;BME280;63427;49.654;6.596;2024-02-26T02:23:14;97582.05;;;10.29;39.59
74881;BME280;63427;49.654;6.596;2024-02-26T02:25:40;97576.95;;;10.15;40.25
74881;BME280;63427;49.654;6.596;2024-02-26T02:30:31;97571.92;;;10.01;40.76
74881;BME280;63427;49.654;6.596;2024-02-26T02:32:58;97572.41;;;10.02;41.19
74881;BME280;63427;49.654;6.596;2024-02-26T02:35:22;97568.48;;;10.16;41.37
74881;BME280;63427;49.654;6.596;2024-02-26T02:37:49;97559.93;;;9.99;41.08
74881;BME280;63427;49.654;6.596;2024-02-26T02:40:20;97566.10;;;9.92;41.76
74881;BME280;63427;49.654;6.596;2024-02-26T02:42:40;97566.82;;;10.00;41.34
74881;BME280;63427;49.654;6.596;2024-02-26T02:45:06;97559.18;;;9.73;41.37
74881;BME280;63427;49.654;6.596;2024-02-26T02:49:56;97568.90;;;9.58;42.40
74881;BME280;63427;49.654;6.596;2024-02-26T02:52:22;97566.96;;;9.79;41.74
74881;BME280;63427;49.654;6.596;2024-02-26T02:54:48;97572.35;;;9.71;42.35
74881;BME280;63427;49.654;6.596;2024-02-26T02:57:13;97576.27;;;9.68;42.14
74881;BME280;63427;49.654;6.596;2024-02-26T02:59:39;97567.99;;;10.07;41.85
74881;BME280;63427;49.654;6.596;2024-02-26T03:02:05;97564.05;;;9.49;42.74
74881;BME280;63427;49.654;6.596;2024-02-26T03:04:30;97560.96;;;10.01;42.53
74881;BME280;63427;49.654;6.596;2024-02-26T03:06:58;97562.34;;;9.92;42.89
74881;BME280;63427;49.654;6.596;2024-02-26T03:11:48;97568.56;;;9.64;42.60
74881;BME280;63427;49.654;6.596;2024-02-26T03:14:13;97564.45;;;9.86;42.38
74881;BME280;63427;49.654;6.596;2024-02-26T03:16:38;97564.85;;;9.79;42.46
74881;BME280;63427;49.654;6.596;2024-02-26T03:19:04;97568.24;;;9.87;42.22
74881;BME280;63427;49.654;6.596;2024-02-26T03:21:30;97564.10;;;9.89;42.52
74881;BME280;63427;49.654;6.596;2024-02-26T03:23:56;97561.75;;;10.20;42.76
74881;BME280;63427;49.654;6.596;2024-02-26T03:26:21;97561.95;;;10.17;42.96
74881;BME280;63427;49.654;6.596;2024-02-26T03:28:47;97564.13;;;9.80;42.64
74881;BME280;63427;49.654;6.596;2024-02-26T03:31:13;97561.31;;;9.93;42.66
74881;BME280;63427;49.654;6.596;2024-02-26T03:33:39;97557.48;;;9.96;42.64
74881;BME280;63427;49.654;6.596;2024-02-26T03:36:05;97560.12;;;10.16;42.37
74881;BME280;63427;49.654;6.596;2024-02-26T03:38:30;97555.23;;;10.16;42.51
74881;BME280;63427;49.654;6.596;2024-02-26T03:40:56;97559.93;;;10.20;42.43
74881;BME280;63427;49.654;6.596;2024-02-26T03:43:22;97558.32;;;10.08;42.79
74881;BME280;63427;49.654;6.596;2024-02-26T03:45:47;97557.33;;;9.87;42.80
74881;BME280;63427;49.654;6.596;2024-02-26T03:48:14;97559.84;;;9.71;42.97
74881;BME280;63427;49.654;6.596;2024-02-26T03:50:39;97561.96;;;9.86;42.78
74881;BME280;63427;49.654;6.596;2024-02-26T03:53:05;97563.45;;;10.26;42.56
74881;BME280;63427;49.654;6.596;2024-02-26T03:57:56;97566.59;;;9.54;43.83
74881;BME280;63427;49.654;6.596;2024-02-26T04:00:22;97568.12;;;9.58;44.09
74881;BME280;63427;49.654;6.596;2024-02-26T04:05:14;97571.15;;;9.78;43.76
74881;BME280;63427;49.654;6.596;2024-02-26T04:07:39;97579.33;;;9.79;43.70
74881;BME280;63427;49.654;6.596;2024-02-26T04:10:10;97578.84;;;9.81;43.90
74881;BME280;63427;49.654;6.596;2024-02-26T04:12:30;97575.96;;;9.91;44.09
74881;BME280;63427;49.654;6.596;2024-02-26T04:14:56;97587.24;;;9.49;44.32
74881;BME280;63427;49.654;6.596;2024-02-26T04:17:22;97583.81;;;9.64;44.74
74881;BME280;63427;49.654;6.596;2024-02-26T04:20:12;97586.83;;;9.95;43.90
74881;BME280;63427;49.654;6.596;2024-02-26T04:22:13;97583.85;;;9.82;43.67
74881;BME280;63427;49.654;6.596;2024-02-26T04:29:30;97601.30;;;10.22;43.14
74881;BME280;63427;49.654;6.596;2024-02-26T04:31:56;97592.78;;;10.23;42.90
74881;BME280;63427;49.654;6.596;2024-02-26T04:34:21;97594.95;;;10.07;43.72
74881;BME280;63427;49.654;6.596;2024-02-26T04:36:47;97596.36;;;10.13;43.46
74881;BME280;63427;49.654;6.596;2024-02-26T04:41:39;97599.55;;;9.94;43.45
74881;BME280;63427;49.654;6.596;2024-02-26T04:44:05;97604.21;;;10.20;43.25
74881;BME280;63427;49.654;6.596;2024-02-26T04:46:37;97602.65;;;10.31;43.15
74881;BME280;63427;49.654;6.596;2024-02-26T04:51:21;97609.24;;;9.97;43.34
74881;BME280;63427;49.654;6.596;2024-02-26T04:53:47;97608.11;;;10.60;42.88
74881;BME280;63427;49.654;6.596;2024-02-26T04:56:12;97606.35;;;10.09;43.30
74881;BME280;63427;49.654;6.596;2024-02-26T04:58:38;97608.90;;;10.40;43.46
74881;BME280;63427;49.654;6.596;2024-02-26T05:03:29;97610.31;;;10.54;42.30
74881;BME280;63427;49.654;6.596;2024-02-26T05:05:55;97612.23;;;10.17;42.91
74881;BME280;63427;49.654;6.596;2024-02-26T05:08:20;97613.08;;;10.15;42.35
74881;BME280;63427;49.654;6.596;2024-02-26T05:10:46;97611.70;;;10.15;42.34
74881;BME280;63427;49.654;6.596;2024-02-26T05:13:12;97618.09;;;10.20;42.42
74881;BME280;63427;49.654;6.596;2024-02-26T05:15:37;97614.24;;;10.08;42.54
74881;BME280;63427;49.654;6.596;2024-02-26T05:18:03;97617.97;;;10.28;43.22
74881;BME280;63427;49.654;6.596;2024-02-26T05:20:29;97612.13;;;9.99;43.35
74881;BME280;63427;49.654;6.596;2024-02-26T05:22:54;97616.87;;;10.12;43.49
74881;BME280;63427;49.654;6.596;2024-02-26T05:27:46;97612.82;;;10.17;42.92
74881;BME280;63427;49.654;6.596;2024-02-26T05:30:12;97612.74;;;9.97;43.26
74881;BME280;63427;49.654;6.596;2024-02-26T05:32:37;97615.08;;;10.17;43.06
74881;BME280;63427;49.654;6.596;2024-02-26T05:35:03;97619.09;;;10.25;43.28
74881;BME280;63427;49.654;6.596;2024-02-26T05:37:29;97624.20;;;10.37;43.25
74881;BME280;63427;49.654;6.596;2024-02-26T05:39:54;97624.82;;;10.34;42.72
74881;BME280;63427;49.654;6.596;2024-02-26T05:42:19;97632.37;;;10.35;42.84
74881;BME280;63427;49.654;6.596;2024-02-26T05:44:46;97632.45;;;10.75;42.17
74881;BME280;63427;49.654;6.596;2024-02-26T05:47:11;97631.39;;;9.28;44.06
74881;BME280;63427;49.654;6.596;2024-02-26T05:49:36;97631.35;;;10.11;43.43
74881;BME280;63427;49.654;6.596;2024-02-26T05:52:02;97632.48;;;10.37;43.45
74881;BME280;63427;49.654;6.596;2024-02-26T05:54:36;97635.65;;;10.40;43.68
74881;BME280;63427;49.654;6.596;2024-02-26T05:56:54;97636.76;;;10.33;43.30
74881;BME280;63427;49.654;6.596;2024-02-26T05:59:19;97637.95;;;10.38;42.84
74881;BME280;63427;49.654;6.596;2024-02-26T06:01:44;97639.20;;;10.75;42.88
74881;BME280;63427;49.654;6.596;2024-02-26T06:04:10;97635.52;;;10.35;42.72
74881;BME280;63427;49.654;6.596;2024-02-26T06:09:01;97646.94;;;10.28;43.22
74881;BME280;63427;49.654;6.596;2024-02-26T06:13:52;97660.93;;;10.51;42.60
74881;BME280;63427;49.654;6.596;2024-02-26T06:16:19;97660.54;;;10.40;42.34
74881;BME280;63427;49.654;6.596;2024-02-26T06:18:44;97662.33;;;10.79;42.08
74881;BME280;63427;49.654;6.596;2024-02-26T06:21:10;97664.41;;;11.00;41.74
74881;BME280;63427;49.654;6.596;2024-02-26T06:26:01;97669.30;;;10.70;42.02
74881;BME280;63427;49.654;6.596;2024-02-26T06:28:26;97669.56;;;10.97;41.97
74881;BME280;63427;49.654;6.596;2024-02-26T06:30:52;97675.92;;;10.33;42.20
74881;BME280;63427;49.654;6.596;2024-02-26T06:33:18;97681.51;;;10.63;42.19
74881;BME280;63427;49.654;6.596;2024-02-26T06:35:43;97681.18;;;11.05;42.02
74881;BME280;63427;49.654;6.596;2024-02-26T06:38:09;97679.24;;;10.71;42.49
74881;BME280;63427;49.654;6.596;2024-02-26T06:40:35;97684.14;;;10.97;43.18
74881;BME280;63427;49.654;6.596;2024-02-26T06:43:00;97688.72;;;10.65;42.78
74881;BME280;63427;49.654;6.596;2024-02-26T06:45:26;97691.11;;;10.33;43.81
74881;BME280;63427;49.654;6.596;2024-02-26T06:47:52;97696.40;;;10.54;43.42
74881;BME280;63427;49.654;6.596;2024-02-26T06:50:17;97699.81;;;10.87;42.90
74881;BME280;63427;49.654;6.596;2024-02-26T06:52:44;97705.51;;;10.26;42.13
74881;BME280;63427;49.654;6.596;2024-02-26T06:55:08;97706.95;;;10.44;42.40
74881;BME280;63427;49.654;6.596;2024-02-26T06:57:34;97708.13;;;10.23;43.22
74881;BME280;63427;49.654;6.596;2024-02-26T06:59:59;97709.99;;;10.37;43.10
74881;BME280;63427;49.654;6.596;2024-02-26T07:04:51;97708.75;;;10.73;42.13
74881;BME280;63427;49.654;6.596;2024-02-26T07:07:16;97705.84;;;10.89;42.04
74881;BME280;63427;49.654;6.596;2024-02-26T07:09:42;97714.11;;;10.92;41.93
74881;BME280;63427;49.654;6.596;2024-02-26T07:12:08;97716.63;;;10.82;42.29
74881;BME280;63427;49.654;6.596;2024-02-26T07:14:33;97722.85;;;10.75;42.47
74881;BME280;63427;49.654;6.596;2024-02-26T07:16:59;97733.96;;;10.91;41.84
74881;BME280;63427;49.654;6.596;2024-02-26T07:19:25;97737.35;;;10.57;41.84
74881;BME280;63427;49.654;6.596;2024-02-26T07:21:50;97743.14;;;11.07;41.96
74881;BME280;63427;49.654;6.596;2024-02-26T07:24:16;97747.94;;;11.11;42.01
74881;BME280;63427;49.654;6.596;2024-02-26T07:26:41;97755.94;;;10.95;42.36
74881;BME280;63427;49.654;6.596;2024-02-26T07:29:07;97758.16;;;10.87;42.34
74881;BME280;63427;49.654;6.596;2024-02-26T07:31:32;97761.06;;;10.59;42.71
74881;BME280;63427;49.654;6.596;2024-02-26T07:34:01;97759.83;;;11.04;42.55
74881;BME280;63427;49.654;6.596;2024-02-26T07:36:24;97768.24;;;10.66;42.59
74881;BME280;63427;49.654;6.596;2024-02-26T07:38:49;97770.40;;;10.72;42.51
74881;BME280;63427;49.654;6.596;2024-02-26T07:41:15;97776.89;;;10.56;42.82
74881;BME280;63427;49.654;6.596;2024-02-26T07:43:41;97784.99;;;10.70;43.01
74881;BME280;63427;49.654;6.596;2024-02-26T07:46:06;97783.36;;;10.77;42.85
74881;BME280;63427;49.654;6.596;2024-02-26T07:48:32;97788.43;;;10.34;43.58
74881;BME280;63427;49.654;6.596;2024-02-26T07:50:58;97796.21;;;10.62;43.32
74881;BME280;63427;49.654;6.596;2024-02-26T07:53:23;97799.52;;;10.84;43.21
74881;BME280;63427;49.654;6.596;2024-02-26T07:55:49;97799.94;;;10.61;42.83
74881;BME280;63427;49.654;6.596;2024-02-26T07:58:19;97800.28;;;10.82;42.75
74881;BME280;63427;49.654;6.596;2024-02-26T08:03:05;97798.54;;;10.98;42.41
74881;BME280;63427;49.654;6.596;2024-02-26T08:05:31;97793.81;;;11.16;42.25
74881;BME280;63427;49.654;6.596;2024-02-26T08:07:57;97803.34;;;11.08;42.25
74881;BME280;63427;49.654;6.596;2024-02-26T08:10:22;97807.38;;;10.99;41.88
74881;BME280;63427;49.654;6.596;2024-02-26T08:12:48;97804.58;;;11.22;42.21
74881;BME280;63427;49.654;6.596;2024-02-26T08:15:13;97804.99;;;11.55;42.18
74881;BME280;63427;49.654;6.596;2024-02-26T08:17:39;97805.86;;;11.47;41.70
74881;BME280;63427;49.654;6.596;2024-02-26T08:20:06;97809.07;;;11.41;42.04
74881;BME280;63427;49.654;6.596;2024-02-26T08:22:31;97808.37;;;11.43;41.99
74881;BME280;63427;49.654;6.596;2024-02-26T08:24:56;97806.12;;;11.41;42.01
74881;BME280;63427;49.654;6.596;2024-02-26T08:27:26;97809.06;;;11.27;42.28
74881;BME280;63427;49.654;6.596;2024-02-26T08:29:47;97813.20;;;11.86;42.37
74881;BME280;63427;49.654;6.596;2024-02-26T08:32:13;97813.64;;;11.75;42.45
74881;BME280;63427;49.654;6.596;2024-02-26T08:37:04;97811.73;;;11.80;41.84
74881;BME280;63427;49.654;6.596;2024-02-26T08:39:29;97814.07;;;11.91;41.32
74881;BME280;63427;49.654;6.596;2024-02-26T08:41:55;97815.13;;;12.16;41.17
74881;BME280;63427;49.654;6.596;2024-02-26T08:44:20;97818.72;;;12.08;41.83
74881;BME280;63427;49.654;6.596;2024-02-26T08:49:12;97830.02;;;12.54;41.19
74881;BME280;63427;49.654;6.596;2024-02-26T08:51:42;97836.32;;;12.71;41.00
74881;BME280;63427;49.654;6.596;2024-02-26T08:56:29;97832.87;;;12.41;40.61
74881;BME280;63427;49.654;6.596;2024-02-26T08:58:54;97830.46;;;12.59;40.68
74881;BME280;63427;49.654;6.596;2024-02-26T09:01:19;97826.75;;;12.78;39.60
74881;BME280;63427;49.654;6.596;2024-02-26T09:03:45;97831.98;;;12.82;39.41
74881;BME280;63427;49.654;6.596;2024-02-26T09:06:10;97837.10;;;13.00;39.05
74881;BME280;63427;49.654;6.596;2024-02-26T09:08:36;97845.34;;;13.12;38.67
74881;BME280;63427;49.654;6.596;2024-02-26T09:11:04;97850.53;;;13.14;39.15
74881;BME280;63427;49.654;6.596;2024-02-26T09:13:27;97852.87;;;12.85;39.47
74881;BME280;63427;49.654;6.596;2024-02-26T09:15:52;97851.07;;;13.17;39.40
74881;BME280;63427;49.654;6.596;2024-02-26T09:18:18;97851.85;;;13.16;39.37
74881;BME280;63427;49.654;6.596;2024-02-26T09:23:09;97850.91;;;13.27;39.03
74881;BME280;63427;49.654;6.596;2024-02-26T09:25:34;97852.72;;;13.05;39.18
74881;BME280;63427;49.654;6.596;2024-02-26T09:30:25;97861.42;;;13.39;39.27
74881;BME280;63427;49.654;6.596;2024-02-26T09:32:51;97861.10;;;13.79;38.08
74881;BME280;63427;49.654;6.596;2024-02-26T09:37:42;97868.91;;;13.39;38.27
74881;BME280;63427;49.654;6.596;2024-02-26T09:40:08;97874.37;;;13.27;37.75
74881;BME280;63427;49.654;6.596;2024-02-26T09:42:34;97877.83;;;13.81;38.25
74881;BME280;63427;49.654;6.596;2024-02-26T09:45:00;97878.18;;;14.20;38.07
74881;BME280;63427;49.654;6.596;2024-02-26T09:47:26;97882.95;;;13.64;38.48
74881;BME280;63427;49.654;6.596;2024-02-26T09:52:17;97887.62;;;13.44;38.36
74881;BME280;63427;49.654;6.596;2024-02-26T09:54:42;97890.57;;;13.54;38.98
74881;BME280;63427;49.654;6.596;2024-02-26T09:57:17;97894.85;;;13.84;38.87
74881;BME280;63427;49.654;6.596;2024-02-26T09:59:39;97898.98;;;13.80;38.36
74881;BME280;63427;49.654;6.596;2024-02-26T10:01:59;97904.70;;;13.75;37.49
74881;BME280;63427;49.654;6.596;2024-02-26T10:04:26;97904.74;;;13.92;37.97
74881;BME280;63427;49.654;6.596;2024-02-26T10:09:13;97901.96;;;14.47;37.02
74881;BME280;63427;49.654;6.596;2024-02-26T10:11:38;97908.47;;;15.12;37.15
74881;BME280;63427;49.654;6.596;2024-02-26T10:14:03;97913.71;;;14.92;36.47
74881;BME280;63427;49.654;6.596;2024-02-26T10:16:29;97917.53;;;15.05;35.79
74881;BME280;63427;49.654;6.596;2024-02-26T10:18:55;97924.20;;;15.01;36.51
74881;BME280;63427;49.654;6.596;2024-02-26T10:26:11;97926.52;;;15.23;35.61
74881;BME280;63427;49.654;6.596;2024-02-26T10:31:02;97924.46;;;15.74;36.14
74881;BME280;63427;49.654;6.596;2024-02-26T10:33:27;97923.73;;;15.88;35.65
74881;BME280;63427;49.654;6.596;2024-02-26T10:35:59;97924.10;;;16.13;35.16
74881;BME280;63427;49.654;6.596;2024-02-26T10:38:18;97926.92;;;15.95;34.86
74881;BME280;63427;49.654;6.596;2024-02-26T10:40:43;97930.02;;;16.46;34.21
74881;BME280;63427;49.654;6.596;2024-02-26T10:43:08;97929.62;;;16.12;33.77
74881;BME280;63427;49.654;6.596;2024-02-26T10:45:35;97923.34;;;16.42;34.52
74881;BME280;63427;49.654;6.596;2024-02-26T10:48:00;97927.75;;;16.63;33.43
74881;BME280;63427;49.654;6.596;2024-02-26T10:50:25;97931.98;;;16.77;32.77
74881;BME280;63427;49.654;6.596;2024-02-26T10:52:51;97936.36;;;16.63;32.41
74881;BME280;63427;49.654;6.596;2024-02-26T10:55:17;97938.31;;;16.45;32.88
74881;BME280;63427;49.654;6.596;2024-02-26T11:02:33;97942.52;;;17.47;31.98
74881;BME280;63427;49.654;6.596;2024-02-26T11:04:57;97941.61;;;17.60;31.70
74881;BME280;63427;49.654;6.596;2024-02-26T11:07:22;97950.51;;;17.25;31.99
74881;BME280;63427;49.654;6.596;2024-02-26T11:09:48;97958.92;;;17.31;32.19
74881;BME280;63427;49.654;6.596;2024-02-26T11:12:13;97969.65;;;17.26;33.06
74881;BME280;63427;49.654;6.596;2024-02-26T11:14:40;97975.31;;;17.37;33.47
74881;BME280;63427;49.654;6.596;2024-02-26T11:17:03;97977.98;;;17.14;32.27
74881;BME280;63427;49.654;6.596;2024-02-26T11:19:28;97980.08;;;17.19;32.38
74881;BME280;63427;49.654;6.596;2024-02-26T11:21:54;97983.16;;;16.94;32.12
74881;BME280;63427;49.654;6.596;2024-02-26T11:26:46;97980.43;;;17.14;32.22
74881;BME280;63427;49.654;6.596;2024-02-26T11:31:35;97988.87;;;17.08;32.90
74881;BME280;63427;49.654;6.596;2024-02-26T11:34:00;97991.41;;;17.15;32.33
74881;BME280;63427;49.654;6.596;2024-02-26T11:36:25;97993.51;;;16.93;31.82
74881;BME280;63427;49.654;6.596;2024-02-26T11:38:50;97991.70;;;17.22;31.90
74881;BME280;63427;49.654;6.596;2024-02-26T11:41:17;97996.90;;;17.05;32.64
74881;BME280;63427;49.654;6.596;2024-02-26T11:43:50;97992.25;;;17.28;32.16
74881;BME280;63427;49.654;6.596;2024-02-26T11:48:47;97985.07;;;17.30;32.32
74881;BME280;63427;49.654;6.596;2024-02-26T11:58:13;97976.40;;;18.71;29.92
74881;BME280;63427;49.654;6.596;2024-02-26T12:00:40;97972.03;;;18.46;29.95
74881;BME280;63427;49.654;6.596;2024-02-26T12:03:04;97975.53;;;18.38;29.69
74881;BME280;63427;49.654;6.596;2024-02-26T12:05:32;97971.92;;;18.64;30.97
74881;BME280;63427;49.654;6.596;2024-02-26T12:07:59;97972.15;;;18.43;31.04
74881;BME280;63427;49.654;6.596;2024-02-26T12:12:45;97965.12;;;17.35;31.30
74881;BME280;63427;49.654;6.596;2024-02-26T12:15:10;97965.75;;;18.14;31.01
74881;BME280;63427;49.654;6.596;2024-02-26T12:17:35;97964.13;;;18.80;30.06
74881;BME280;63427;49.654;6.596;2024-02-26T12:20:09;97967.07;;;18.64;29.95
74881;BME280;63427;49.654;6.596;2024-02-26T12:22:27;97972.21;;;19.09;30.20
74881;BME280;63427;49.654;6.596;2024-02-26T12:27:17;97980.31;;;18.98;30.42
74881;BME280;63427;49.654;6.596;2024-02-26T12:29:41;97991.67;;;18.55;30.82
74881;BME280;63427;49.654;6.596;2024-02-26T12:34:32;97996.01;;;18.67;29.86
74881;BME280;63427;49.654;6.596;2024-02-26T12:36:58;97996.78;;;18.68;30.18
74881;BME280;63427;49.654;6.596;2024-02-26T12:39:22;97999.09;;;18.94;30.42
74881;BME280;63427;49.654;6.596;2024-02-26T12:41:48;98000.55;;;18.43;29.84
74881;BME280;63427;49.654;6.596;2024-02-26T12:44:13;98006.59;;;17.68;30.80
74881;BME280;63427;49.654;6.596;2024-02-26T12:49:03;98006.39;;;18.36;30.74
74881;BME280;63427;49.654;6.596;2024-02-26T12:51:29;98008.84;;;18.73;30.59
74881;BME280;63427;49.654;6.596;2024-02-26T12:53:55;98013.94;;;18.99;30.56
74881;BME280;63427;49.654;6.596;2024-02-26T12:58:45;98011.29;;;18.76;30.26
74881;BME280;63427;49.654;6.596;2024-02-26T13:01:16;98017.11;;;19.11;30.05
74881;BME280;63427;49.654;6.596;2024-02-26T13:03:36;98019.82;;;18.97;29.22
74881;BME280;63427;49.654;6.596;2024-02-26T13:06:00;98021.03;;;18.88;29.99
74881;BME280;63427;49.654;6.596;2024-02-26T13:08:25;98021.81;;;19.09;29.70
74881;BME280;63427;49.654;6.596;2024-02-26T13:10:50;98021.20;;;19.38;29.82
74881;BME280;63427;49.654;6.596;2024-02-26T13:13:16;98024.59;;;19.94;28.98
74881;BME280;63427;49.654;6.596;2024-02-26T13:15:40;98026.86;;;20.06;28.98
74881;BME280;63427;49.654;6.596;2024-02-26T13:18:11;98031.04;;;20.06;29.04
74881;BME280;63427;49.654;6.596;2024-02-26T13:20:31;98029.57;;;19.97;29.06
74881;BME280;63427;49.654;6.596;2024-02-26T13:23:02;98028.99;;;19.80;27.50
74881;BME280;63427;49.654;6.596;2024-02-26T13:25:26;98031.95;;;19.92;27.75
74881;BME280;63427;49.654;6.596;2024-02-26T13:27:46;98037.97;;;19.75;29.28
74881;BME280;63427;49.654;6.596;2024-02-26T13:30:12;98039.02;;;19.75;29.01
74881;BME280;63427;49.654;6.596;2024-02-26T13:32:37;98045.54;;;20.11;29.43
74881;BME280;63427;49.654;6.596;2024-02-26T13:35:06;98043.49;;;20.47;28.40
74881;BME280;63427;49.654;6.596;2024-02-26T13:37:27;98039.60;;;21.11;25.39
74881;BME280;63427;49.654;6.596;2024-02-26T13:39:52;98039.81;;;20.95;27.29
74881;BME280;63427;49.654;6.596;2024-02-26T13:42:17;98036.29;;;20.78;26.44
74881;BME280;63427;49.654;6.596;2024-02-26T13:44:42;98040.04;;;20.59;27.34
74881;BME280;63427;49.654;6.596;2024-02-26T13:56:48;98058.69;;;20.14;27.33
74881;BME280;63427;49.654;6.596;2024-02-26T13:59:13;98065.09;;;20.53;26.19
74881;BME280;63427;49.654;6.596;2024-02-26T14:01:38;98066.36;;;20.28;26.92
74881;BME280;63427;49.654;6.596;2024-02-26T14:04:04;98070.96;;;20.15;26.87
74881;BME280;63427;49.654;6.596;2024-02-26T14:06:29;98072.33;;;19.96;27.33
74881;BME280;63427;49.654;6.596;2024-02-26T14:11:19;98074.32;;;19.40;28.53
74881;BME280;63427;49.654;6.596;2024-02-26T14:13:45;98075.20;;;19.27;27.35
74881;BME280;63427;49.654;6.596;2024-02-26T14:16:09;98071.95;;;19.20;27.32
74881;BME280;63427;49.654;6.596;2024-02-26T14:18:34;98073.26;;;18.98;28.30
74881;BME280;63427;49.654;6.596;2024-02-26T14:20:59;98072.15;;;18.64;28.80
74881;BME280;63427;49.654;6.596;2024-02-26T14:23:25;98072.95;;;18.99;30.03
74881;BME280;63427;49.654;6.596;2024-02-26T14:25:50;98072.40;;;18.91;29.17
74881;BME280;63427;49.654;6.596;2024-02-26T14:28:16;98073.63;;;18.93;28.26
74881;BME280;63427;49.654;6.596;2024-02-26T14:33:06;98078.03;;;18.94;28.20
74881;BME280;63427;49.654;6.596;2024-02-26T14:35:31;98083.20;;;18.83;28.27
74881;BME280;63427;49.654;6.596;2024-02-26T14:37:56;98090.18;;;18.37;28.50
74881;BME280;63427;49.654;6.596;2024-02-26T14:40:22;98096.63;;;18.42;29.43
74881;BME280;63427;49.654;6.596;2024-02-26T14:42:46;98098.58;;;18.44;29.27
74881;BME280;63427;49.654;6.596;2024-02-26T14:45:12;98106.13;;;17.81;29.95
74881;BME280;63427;49.654;6.596;2024-02-26T14:47:38;98109.66;;;17.87;30.65
74881;BME280;63427;49.654;6.596;2024-02-26T14:50:03;98110.25;;;17.67;30.34
74881;BME280;63427;49.654;6.596;2024-02-26T14:52:28;98109.55;;;17.68;30.33
74881;BME280;63427;49.654;6.596;2024-02-26T14:54:53;98112.62;;;17.67;30.81
74881;BME280;63427;49.654;6.596;2024-02-26T14:57:19;98116.94;;;17.52;30.58
74881;BME280;63427;49.654;6.596;2024-02-26T14:59:44;98116.68;;;17.36;30.67
74881;BME280;63427;49.654;6.596;2024-02-26T15:02:09;98117.89;;;17.56;30.78
74881;BME280;63427;49.654;6.596;2024-02-26T15:04:34;98123.97;;;17.42;31.09
74881;BME280;63427;49.654;6.596;2024-02-26T15:07:00;98124.54;;;17.60;31.43
74881;BME280;63427;49.654;6.596;2024-02-26T15:09:25;98130.62;;;17.14;31.61